Time;durP1;ratioP1;P1;durP2;ratioP2;P2;SDS_P1;SDS_P2;PMS_P1;PMS_P2;Temp;Humidity;BMP_temperature;BMP_pressure;BME280_temperature;BME280_humidity;BME280_pressure;Samples;Min_cycle;Max_cycle;Signal;HPM_P1;HPM_P2
2022/04/05 00:01:00;;;;;;;9.97;5.90;;;5.40;99.90;;;;;;4959476;28;20180;-85
2022/04/05 00:03:27;;;;;;;8.10;6.20;;;5.40;99.90;;;;;;4975508;28;20204;-85
2022/04/05 00:05:53;;;;;;;9.93;6.70;;;5.50;99.90;;;;;;4959464;28;20187;-85
2022/04/05 00:08:18;;;;;;;7.40;6.33;;;5.50;99.90;;;;;;4959227;28;20186;-85
2022/04/05 00:10:44;;;;;;;10.17;6.87;;;5.40;99.90;;;;;;4958981;28;20190;-85
2022/04/05 00:13:10;;;;;;;9.20;6.60;;;5.40;99.90;;;;;;4975367;28;20242;-85
2022/04/05 00:15:36;;;;;;;7.87;6.77;;;5.50;99.90;;;;;;4975531;28;20176;-85
2022/04/05 00:18:03;;;;;;;7.07;6.30;;;5.50;99.90;;;;;;4959071;28;20199;-85
2022/04/05 00:20:29;;;;;;;8.10;6.13;;;5.50;99.90;;;;;;4974719;28;20188;-85
2022/04/05 00:22:58;;;;;;;7.30;6.17;;;5.50;99.90;;;;;;4977904;28;20199;-85
2022/04/05 00:25:24;;;;;;;7.63;6.07;;;5.50;99.90;;;;;;4978161;28;20207;-85
2022/04/05 00:27:50;;;;;;;9.27;6.57;;;5.50;99.90;;;;;;4977737;28;20175;-85
2022/04/05 00:30:16;;;;;;;7.07;5.63;;;5.50;99.90;;;;;;4975104;28;20199;-85
2022/04/05 00:32:42;;;;;;;6.73;5.77;;;5.50;99.90;;;;;;4991558;28;20197;-85
2022/04/05 00:35:09;;;;;;;7.50;6.00;;;5.50;99.90;;;;;;4977616;28;20227;-85
2022/04/05 00:37:36;;;;;;;7.50;5.97;;;5.50;99.90;;;;;;4977799;28;20265;-85
2022/04/05 00:40:04;;;;;;;8.23;5.77;;;5.50;99.90;;;;;;4977715;28;20190;-85
2022/04/05 00:42:30;;;;;;;7.13;5.53;;;5.50;99.90;;;;;;4977742;28;20345;-85
2022/04/05 00:44:56;;;;;;;7.27;5.60;;;5.50;99.90;;;;;;4977699;28;20259;-85
2022/04/05 00:47:24;;;;;;;6.67;5.33;;;5.50;99.90;;;;;;4978001;28;20194;-84
2022/04/05 00:49:52;;;;;;;8.37;6.10;;;5.50;99.90;;;;;;4977074;28;20318;-85
2022/04/05 00:52:20;;;;;;;7.17;6.10;;;5.60;99.90;;;;;;4979121;28;20214;-85
2022/04/05 00:54:48;;;;;;;8.07;6.80;;;5.50;99.90;;;;;;4980374;28;20229;-85
2022/04/05 00:57:16;;;;;;;8.10;6.23;;;5.50;99.90;;;;;;4980228;28;20210;-85
2022/04/05 00:59:43;;;;;;;7.57;6.03;;;5.50;99.90;;;;;;4965396;28;20188;-85
2022/04/05 01:02:12;;;;;;;8.17;6.40;;;5.50;99.90;;;;;;4960596;28;20207;-85
2022/04/05 01:04:40;;;;;;;6.80;5.97;;;5.50;99.90;;;;;;4960490;28;20206;-85
2022/04/05 01:07:10;;;;;;;7.57;5.60;;;5.50;99.90;;;;;;4976880;28;20308;-85
2022/04/05 01:09:37;;;;;;;6.50;5.57;;;5.50;99.90;;;;;;4960701;28;20246;-85
2022/04/05 01:12:05;;;;;;;7.57;6.07;;;5.50;99.90;;;;;;4960487;28;20242;-85
2022/04/05 01:14:32;;;;;;;6.67;5.70;;;5.50;99.90;;;;;;4960635;28;20215;-85
2022/04/05 01:16:58;;;;;;;6.07;5.47;;;5.50;99.90;;;;;;4960539;28;20246;-85
2022/04/05 01:19:24;;;;;;;7.87;5.97;;;5.50;99.90;;;;;;4960201;28;20180;-85
2022/04/05 01:21:50;;;;;;;7.43;5.77;;;5.50;99.90;;;;;;4976232;28;20176;-85
2022/04/05 01:24:16;;;;;;;6.73;5.63;;;5.50;99.90;;;;;;4977816;28;20305;-85
2022/04/05 01:26:50;;;;;;;7.03;5.80;;;5.50;99.90;;;;;;4979268;28;20179;-85
2022/04/05 01:29:19;;;;;;;7.00;6.03;;;5.50;99.90;;;;;;4967958;28;20188;-85
2022/04/05 01:31:47;;;;;;;9.73;6.17;;;5.50;99.90;;;;;;4960137;28;20176;-85
2022/04/05 01:34:16;;;;;;;7.83;6.13;;;5.50;99.90;;;;;;4976420;28;20180;-85
2022/04/05 01:36:47;;;;;;;7.57;5.60;;;5.50;99.90;;;;;;4960688;28;20183;-85
2022/04/05 01:39:17;;;;;;;6.80;5.57;;;5.50;99.90;;;;;;4967039;28;20230;-85
2022/04/05 01:41:43;;;;;;;8.13;6.00;;;5.50;99.90;;;;;;4979368;28;20187;-85
2022/04/05 01:44:11;;;;;;;7.87;5.73;;;5.50;99.90;;;;;;4995511;28;20209;-85
2022/04/05 01:46:38;;;;;;;8.13;6.23;;;5.50;99.90;;;;;;4979569;28;20179;-85
2022/04/05 01:49:13;;;;;;;7.27;5.77;;;5.50;99.90;;;;;;4979292;28;20270;-85
2022/04/05 01:51:40;;;;;;;8.93;5.50;;;5.50;99.90;;;;;;4979800;28;20240;-85
2022/04/05 01:54:08;;;;;;;8.03;6.03;;;5.50;99.90;;;;;;4995427;28;20210;-85
2022/04/05 01:56:41;;;;;;;8.00;5.87;;;5.50;99.90;;;;;;4979222;28;20180;-85
2022/04/05 01:59:07;;;;;;;7.63;5.90;;;5.50;99.90;;;;;;4969275;28;20195;-85
2022/04/05 02:01:33;;;;;;;8.33;6.17;;;5.50;99.90;;;;;;4959936;28;20207;-85
2022/04/05 02:03:59;;;;;;;8.83;5.67;;;5.50;99.90;;;;;;4963269;28;20706;-85
2022/04/05 02:06:25;;;;;;;8.37;5.80;;;5.50;99.90;;;;;;4963844;28;20175;-84
2022/04/05 02:08:51;;;;;;;7.30;5.77;;;5.50;99.90;;;;;;4964546;28;20195;-85
2022/04/05 02:11:17;;;;;;;7.93;5.53;;;5.50;99.90;;;;;;4980213;28;20680;-85
2022/04/05 02:13:47;;;;;;;6.30;5.20;;;5.50;99.90;;;;;;4964281;28;20230;-84
2022/04/05 02:16:13;;;;;;;8.73;6.13;;;5.50;99.90;;;;;;4964000;28;20176;-85
2022/04/05 02:18:40;;;;;;;6.57;5.80;;;5.50;99.90;;;;;;4963877;28;20179;-85
2022/04/05 02:21:06;;;;;;;7.67;6.30;;;5.50;99.90;;;;;;4963297;28;20180;-85
2022/04/05 02:23:33;;;;;;;8.73;6.10;;;5.50;99.90;;;;;;4979586;28;20251;-85
2022/04/05 02:26:12;;;;;;;7.63;5.93;;;5.50;99.90;;;;;;4965382;28;20186;-85
2022/04/05 02:28:44;;;;;;;6.73;5.77;;;5.50;99.90;;;;;;4964345;28;20207;-85
2022/04/05 02:31:52;;;;;;;6.97;5.73;;;5.60;99.90;;;;;;4963411;28;20182;-85
2022/04/05 02:34:37;;;;;;;6.20;5.57;;;5.60;99.90;;;;;;4963019;28;20199;-85
2022/04/05 02:37:04;;;;;;;9.53;6.17;;;5.60;99.90;;;;;;4967509;28;20174;-85
2022/04/05 02:39:31;;;;;;;7.97;6.33;;;5.60;99.90;;;;;;4981990;28;20210;-85
2022/04/05 02:42:01;;;;;;;8.17;6.40;;;5.60;99.90;;;;;;4982658;28;20175;-85
2022/04/05 02:44:29;;;;;;;6.80;5.97;;;5.60;99.90;;;;;;4997647;28;20738;-84
2022/04/05 02:47:00;;;;;;;9.93;6.30;;;5.60;99.90;;;;;;4983081;28;20191;-85
2022/04/05 02:49:31;;;;;;;8.67;5.70;;;5.60;99.90;;;;;;4982777;28;20262;-85
2022/04/05 02:51:57;;;;;;;8.07;5.80;;;5.60;99.90;;;;;;4982477;28;20238;-85
2022/04/05 02:54:30;;;;;;;6.63;5.30;;;5.60;99.90;;;;;;4983247;28;20186;-84
2022/04/05 02:56:59;;;;;;;9.27;5.90;;;5.60;99.90;;;;;;4982770;28;20183;-85
2022/04/05 02:59:25;;;;;;;6.77;5.43;;;5.60;99.90;;;;;;4969291;28;20183;-85
2022/04/05 03:01:52;;;;;;;8.33;6.17;;;5.60;99.90;;;;;;4962766;28;20187;-85
2022/04/05 03:04:20;;;;;;;6.37;5.73;;;5.60;99.90;;;;;;4978869;28;20207;-85
2022/04/05 03:06:47;;;;;;;8.30;6.03;;;5.60;99.90;;;;;;4963357;28;20180;-84
2022/04/05 03:09:14;;;;;;;7.80;5.87;;;5.60;99.90;;;;;;4963179;28;20172;-85
2022/04/05 03:11:48;;;;;;;7.90;6.27;;;5.60;99.90;;;;;;4963241;28;20633;-85
2022/04/05 03:14:17;;;;;;;8.47;6.23;;;5.60;99.90;;;;;;4963687;28;20189;-85
2022/04/05 03:16:43;;;;;;;7.63;6.07;;;5.60;99.90;;;;;;4962778;28;20188;-85
2022/04/05 03:19:15;;;;;;;7.30;6.43;;;5.60;99.90;;;;;;4963648;28;20183;-85
2022/04/05 03:21:42;;;;;;;7.07;5.70;;;5.60;99.90;;;;;;4963170;28;20214;-85
2022/04/05 03:24:08;;;;;;;6.67;5.87;;;5.70;99.90;;;;;;4962707;28;20282;-85
2022/04/05 03:26:35;;;;;;;8.97;5.90;;;5.70;99.90;;;;;;4962810;28;20234;-85
2022/04/05 03:29:01;;;;;;;9.90;6.43;;;5.60;99.90;;;;;;4962960;28;20184;-85
2022/04/05 03:31:27;;;;;;;8.00;5.73;;;5.70;99.90;;;;;;4963626;28;20209;-84
2022/04/05 03:33:55;;;;;;;7.10;5.70;;;5.70;99.90;;;;;;4973081;28;20196;-85
2022/04/05 03:36:21;;;;;;;7.50;5.33;;;5.70;99.90;;;;;;4979331;28;20267;-85
2022/04/05 03:38:47;;;;;;;7.23;5.67;;;5.70;99.90;;;;;;4979690;28;20189;-85
2022/04/05 03:41:15;;;;;;;7.97;6.03;;;5.70;99.90;;;;;;4964134;28;20215;-85
2022/04/05 03:43:43;;;;;;;7.53;5.90;;;5.70;99.90;;;;;;4963886;28;20283;-84
2022/04/05 03:46:12;;;;;;;7.60;5.87;;;5.80;99.90;;;;;;4980356;28;20265;-85
2022/04/05 03:48:57;;;;;;;8.50;6.60;;;5.80;99.90;;;;;;4977787;28;20173;-85
2022/04/05 03:51:23;;;;;;;8.20;5.70;;;5.80;99.90;;;;;;4978705;28;20223;-84
2022/04/05 03:53:58;;;;;;;9.03;5.73;;;5.80;99.90;;;;;;4980137;28;20200;-84
2022/04/05 03:56:27;;;;;;;7.87;5.73;;;5.80;99.90;;;;;;4979201;28;20183;-84
2022/04/05 03:58:57;;;;;;;7.00;5.67;;;5.80;99.90;;;;;;4978618;28;20271;-85
2022/04/05 04:01:26;;;;;;;6.37;5.53;;;5.80;99.90;;;;;;4985114;28;20177;-85
2022/04/05 04:03:52;;;;;;;8.10;6.13;;;5.80;99.90;;;;;;4966464;28;20204;-85
2022/04/05 04:06:19;;;;;;;6.50;5.80;;;5.80;99.90;;;;;;4962903;28;20184;-84
2022/04/05 04:08:46;;;;;;;8.03;6.13;;;5.80;99.90;;;;;;4962373;28;20186;-84
2022/04/05 04:11:17;;;;;;;8.73;5.97;;;5.80;99.90;;;;;;4990314;28;20210;-84
2022/04/05 04:13:44;;;;;;;6.57;5.73;;;5.80;99.90;;;;;;4962007;28;20591;-84
2022/04/05 04:16:12;;;;;;;7.03;5.80;;;5.80;99.90;;;;;;4961504;28;20212;-85
2022/04/05 04:18:41;;;;;;;8.23;6.00;;;5.80;99.90;;;;;;4962144;28;20219;-85
2022/04/05 04:21:12;;;;;;;10.53;5.53;;;5.80;99.90;;;;;;4976970;28;20594;-85
2022/04/05 04:23:39;;;;;;;6.50;5.73;;;5.80;99.90;;;;;;4962532;28;20220;-85
2022/04/05 04:26:06;;;;;;;8.97;5.57;;;5.80;99.90;;;;;;4962411;28;20181;-84
2022/04/05 04:28:32;;;;;;;8.63;5.47;;;5.80;99.90;;;;;;4967383;28;20192;-84
2022/04/05 04:30:58;;;;;;;7.13;5.30;;;5.80;99.90;;;;;;4997367;28;20191;-85
2022/04/05 04:33:24;;;;;;;6.40;5.43;;;5.80;99.90;;;;;;4981690;28;20211;-85
2022/04/05 04:35:50;;;;;;;6.23;5.60;;;5.80;99.90;;;;;;4981714;28;20262;-85
2022/04/05 04:38:17;;;;;;;7.13;6.00;;;5.80;99.90;;;;;;4972476;28;20190;-85
2022/04/05 04:40:47;;;;;;;7.30;5.57;;;5.90;99.90;;;;;;4964682;28;20172;-84
2022/04/05 04:43:15;;;;;;;8.20;5.80;;;5.90;99.90;;;;;;4961914;28;20196;-84
2022/04/05 04:45:41;;;;;;;7.07;5.40;;;5.80;99.90;;;;;;4976760;28;20219;-85
2022/04/05 04:48:07;;;;;;;8.63;5.70;;;5.80;99.90;;;;;;4976956;28;20659;-85
2022/04/05 04:50:33;;;;;;;6.93;5.30;;;5.80;99.90;;;;;;4978671;28;20187;-85
2022/04/05 04:52:59;;;;;;;7.87;5.40;;;5.80;99.90;;;;;;4980391;28;20207;-85
2022/04/05 04:55:38;;;;;;;8.87;6.03;;;5.90;99.90;;;;;;4969591;28;20267;-85
2022/04/05 04:58:10;;;;;;;8.33;5.77;;;5.80;99.90;;;;;;4988146;28;20185;-85
2022/04/05 05:00:36;;;;;;;6.90;5.70;;;5.80;99.90;;;;;;4968970;28;20182;-85
2022/04/05 05:03:02;;;;;;;7.70;5.57;;;5.80;99.90;;;;;;4974049;28;20195;-85
2022/04/05 05:05:28;;;;;;;7.07;5.57;;;5.80;99.90;;;;;;4957818;28;20211;-85
2022/04/05 05:07:55;;;;;;;7.07;5.17;;;5.80;99.90;;;;;;4958716;28;20184;-85
2022/04/05 05:10:25;;;;;;;8.07;5.30;;;5.80;99.90;;;;;;4960287;28;20188;-85
2022/04/05 05:12:54;;;;;;;6.47;5.17;;;5.90;99.90;;;;;;4959021;28;20207;-85
2022/04/05 05:15:21;;;;;;;6.37;5.60;;;5.90;99.90;;;;;;4964928;28;20199;-85
2022/04/05 05:17:48;;;;;;;5.90;5.10;;;5.90;99.90;;;;;;4974132;28;20222;-85
2022/04/05 05:20:16;;;;;;;7.03;5.40;;;5.90;99.90;;;;;;4974012;28;20183;-85
2022/04/05 05:22:42;;;;;;;7.03;5.20;;;5.90;99.90;;;;;;4957840;28;20215;-85
2022/04/05 05:25:09;;;;;;;7.17;5.60;;;5.90;99.90;;;;;;4973750;28;20212;-85
2022/04/05 05:27:37;;;;;;;6.93;5.07;;;5.80;99.90;;;;;;4957894;28;20207;-86
2022/04/05 05:30:08;;;;;;;7.07;5.60;;;5.90;99.90;;;;;;4971357;28;20195;-85
2022/04/05 05:32:51;;;;;;;7.17;5.77;;;5.90;99.90;;;;;;4957895;28;20204;-85
2022/04/05 05:35:20;;;;;;;7.80;5.67;;;5.80;99.90;;;;;;4958061;28;20187;-86
2022/04/05 05:37:48;;;;;;;10.67;6.10;;;5.90;99.90;;;;;;4960787;28;20184;-85
2022/04/05 05:40:15;;;;;;;8.13;5.77;;;5.90;99.90;;;;;;4961708;28;20328;-85
2022/04/05 05:42:55;;;;;;;11.77;7.40;;;5.90;99.90;;;;;;4978365;28;20278;-85
2022/04/05 05:45:22;;;;;;;10.17;7.00;;;5.90;99.90;;;;;;4977857;28;20210;-86
2022/04/05 05:47:48;;;;;;;10.47;7.50;;;5.90;99.90;;;;;;4961486;28;20621;-85
2022/04/05 05:50:14;;;;;;;9.40;6.57;;;5.90;99.90;;;;;;4961364;28;20172;-86
2022/04/05 05:52:42;;;;;;;7.13;6.23;;;5.90;99.90;;;;;;4978094;28;20203;-85
2022/04/05 05:55:08;;;;;;;8.50;6.33;;;5.90;99.90;;;;;;4977926;28;20183;-85
2022/04/05 05:57:35;;;;;;;8.93;5.43;;;5.90;99.90;;;;;;4996632;28;20197;-85
2022/04/05 06:00:06;;;;;;;9.17;5.77;;;5.90;99.90;;;;;;4979877;28;20192;-85
2022/04/05 06:02:38;;;;;;;9.10;5.80;;;5.90;99.90;;;;;;4978051;28;20198;-85
2022/04/05 06:05:05;;;;;;;10.17;6.23;;;5.90;99.90;;;;;;4962742;28;20239;-87
2022/04/05 06:07:32;;;;;;;7.67;5.80;;;6.00;99.90;;;;;;4961898;28;20184;-85
2022/04/05 06:09:58;;;;;;;9.77;5.40;;;6.00;99.90;;;;;;4978569;28;20183;-85
2022/04/05 06:12:23;;;;;;;7.23;5.43;;;6.00;99.90;;;;;;4981511;28;20199;-85
2022/04/05 06:14:49;;;;;;;7.50;5.73;;;6.00;99.90;;;;;;4981813;28;20194;-84
2022/04/05 06:17:15;;;;;;;6.83;5.43;;;6.00;99.90;;;;;;4981307;28;20196;-85
2022/04/05 06:19:41;;;;;;;5.67;4.73;;;6.00;99.90;;;;;;4981718;28;20196;-85
2022/04/05 06:22:07;;;;;;;6.07;4.93;;;6.00;99.90;;;;;;4997460;28;20203;-85
2022/04/05 06:24:33;;;;;;;5.70;5.10;;;6.10;99.90;;;;;;4974695;28;20207;-85
2022/04/05 06:26:58;;;;;;;6.83;5.50;;;6.10;99.90;;;;;;4961187;28;20180;-85
2022/04/05 06:29:24;;;;;;;8.00;5.20;;;6.10;99.90;;;;;;4973381;28;20214;-85
2022/04/05 06:31:51;;;;;;;7.37;5.17;;;6.20;99.90;;;;;;4980031;28;20646;-85
2022/04/05 06:34:17;;;;;;;6.73;4.80;;;6.20;99.90;;;;;;4980200;28;20609;-85
2022/04/05 06:36:42;;;;;;;7.07;5.37;;;6.20;99.90;;;;;;4980372;28;20180;-85
2022/04/05 06:39:08;;;;;;;6.33;5.23;;;6.20;99.90;;;;;;4979331;28;20608;-85
2022/04/05 06:41:35;;;;;;;7.53;4.90;;;6.30;99.90;;;;;;5013753;28;20195;-85
2022/04/05 06:44:01;;;;;;;8.80;5.43;;;6.20;99.90;;;;;;4980024;28;20254;-85
2022/04/05 06:46:27;;;;;;;6.40;5.10;;;6.30;99.90;;;;;;4996252;28;20176;-85
2022/04/05 06:48:54;;;;;;;7.40;6.00;;;6.30;99.90;;;;;;4995543;28;20176;-85
2022/04/05 06:51:20;;;;;;;5.73;4.80;;;6.30;99.90;;;;;;4980108;28;20218;-85
2022/04/05 06:53:47;;;;;;;8.47;5.57;;;6.30;99.90;;;;;;4976141;28;20255;-85
2022/04/05 06:56:13;;;;;;;5.10;4.60;;;6.40;99.90;;;;;;4960710;28;20182;-84
2022/04/05 06:58:39;;;;;;;6.73;4.87;;;6.40;99.90;;;;;;4983006;28;20177;-85
2022/04/05 07:01:05;;;;;;;7.43;5.57;;;6.40;99.90;;;;;;4979300;28;20555;-85
2022/04/05 07:03:31;;;;;;;6.73;5.27;;;6.40;99.90;;;;;;4995727;28;20204;-85
2022/04/05 07:05:58;;;;;;;7.20;5.13;;;6.40;99.90;;;;;;4977843;28;20215;-85
2022/04/05 07:08:24;;;;;;;7.63;5.07;;;6.50;99.90;;;;;;4976695;28;20223;-85
2022/04/05 07:10:51;;;;;;;6.70;5.30;;;6.50;99.90;;;;;;4960593;28;20205;-85
2022/04/05 07:13:17;;;;;;;6.50;5.23;;;6.60;99.90;;;;;;4959947;28;20213;-85
2022/04/05 07:15:43;;;;;;;6.50;4.70;;;6.60;99.90;;;;;;4959781;28;20186;-85
2022/04/05 07:18:09;;;;;;;7.97;5.07;;;6.60;99.90;;;;;;4959870;28;20198;-84
2022/04/05 07:20:35;;;;;;;8.63;6.07;;;6.70;99.90;;;;;;4961944;28;20239;-85
2022/04/05 07:23:00;;;;;;;8.17;6.00;;;6.80;99.90;;;;;;4962270;28;20260;-85
2022/04/05 07:25:26;;;;;;;7.80;5.40;;;6.90;99.90;;;;;;4962373;28;20212;-85
2022/04/05 07:27:53;;;;;;;7.13;5.00;;;6.90;99.90;;;;;;4978527;28;20653;-85
2022/04/05 07:30:20;;;;;;;6.20;4.47;;;6.90;99.90;;;;;;4978109;28;20205;-85
2022/04/05 07:32:46;;;;;;;8.20;5.00;;;7.00;99.90;;;;;;4962561;28;20571;-85
2022/04/05 07:35:14;;;;;;;6.27;5.27;;;7.00;99.90;;;;;;4978267;28;20554;-85
2022/04/05 07:37:40;;;;;;;6.80;5.20;;;7.00;99.90;;;;;;4969057;28;20189;-84
2022/04/05 07:40:10;;;;;;;6.27;4.50;;;7.10;99.90;;;;;;4980676;28;20243;-84
2022/04/05 07:42:38;;;;;;;6.97;4.40;;;7.10;99.90;;;;;;4978618;28;20232;-84
2022/04/05 07:45:05;;;;;;;8.33;5.10;;;7.10;99.90;;;;;;4978841;28;20208;-85
2022/04/05 07:47:31;;;;;;;5.37;4.37;;;7.10;99.90;;;;;;4978804;28;20193;-84
2022/04/05 07:49:57;;;;;;;9.77;7.70;;;7.10;99.90;;;;;;4978408;28;20184;-84
2022/04/05 07:52:22;;;;;;;7.13;5.40;;;7.20;99.90;;;;;;4975565;28;20291;-85
2022/04/05 07:54:48;;;;;;;6.70;5.33;;;7.30;99.90;;;;;;4978045;28;20184;-85
2022/04/05 07:57:15;;;;;;;6.97;4.97;;;7.30;99.90;;;;;;4961795;28;20194;-85
2022/04/05 07:59:41;;;;;;;6.57;4.77;;;7.40;99.90;;;;;;4960639;28;20206;-85
2022/04/05 08:02:10;;;;;;;7.10;4.73;;;7.30;99.90;;;;;;4961040;28;20196;-85
2022/04/05 08:04:36;;;;;;;8.37;5.67;;;7.40;99.90;;;;;;4961873;28;20206;-85
2022/04/05 08:07:02;;;;;;;8.17;5.67;;;7.40;99.90;;;;;;4969752;28;20190;-85
2022/04/05 08:09:28;;;;;;;7.93;4.80;;;7.40;99.90;;;;;;4961444;28;20183;-85
2022/04/05 08:11:54;;;;;;;7.43;5.87;;;7.40;99.90;;;;;;4977919;28;20262;-85
2022/04/05 08:14:20;;;;;;;10.47;5.30;;;7.40;99.90;;;;;;4977450;28;20254;-85
2022/04/05 08:16:46;;;;;;;6.63;4.23;;;7.40;99.90;;;;;;4961151;28;20195;-85
2022/04/05 08:19:12;;;;;;;7.43;4.63;;;7.40;99.90;;;;;;4961184;28;20196;-85
2022/04/05 08:21:38;;;;;;;6.03;4.33;;;7.30;99.90;;;;;;4961747;28;20186;-85
2022/04/05 08:24:04;;;;;;;6.10;4.70;;;7.30;99.90;;;;;;4978308;28;20212;-85
2022/04/05 08:27:26;;;;;;;6.60;4.07;;;7.30;99.90;;;;;;4980477;28;20189;-85
2022/04/05 08:29:52;;;;;;;6.10;4.47;;;7.40;99.90;;;;;;4964392;28;20213;-85
2022/04/05 08:32:18;;;;;;;6.10;4.83;;;7.40;99.90;;;;;;4969665;28;20299;-85
2022/04/05 08:34:45;;;;;;;6.97;4.53;;;7.40;99.90;;;;;;4977160;28;20188;-85
2022/04/05 08:37:14;;;;;;;5.67;4.23;;;7.30;99.90;;;;;;4977172;28;20554;-85
2022/04/05 08:39:41;;;;;;;7.33;4.70;;;7.40;99.90;;;;;;4971156;28;20194;-84
2022/04/05 08:42:08;;;;;;;5.33;4.07;;;7.40;99.90;;;;;;4977028;28;20203;-85
2022/04/05 08:44:34;;;;;;;5.87;3.97;;;7.40;99.90;;;;;;4960884;28;20210;-85
2022/04/05 08:47:01;;;;;;;6.20;4.80;;;7.50;99.90;;;;;;4976942;28;20187;-85
2022/04/05 08:49:29;;;;;;;5.10;4.13;;;7.50;99.90;;;;;;4976585;28;20555;-85
2022/04/05 08:51:55;;;;;;;8.10;4.60;;;7.50;99.90;;;;;;4976995;28;20215;-85
2022/04/05 08:54:21;;;;;;;7.30;4.60;;;7.60;99.90;;;;;;4977674;28;20191;-85
2022/04/05 08:56:47;;;;;;;6.77;4.17;;;7.70;99.90;;;;;;4979779;28;20670;-85
2022/04/05 08:59:14;;;;;;;5.37;4.10;;;7.70;99.90;;;;;;4969432;28;20344;-85
2022/04/05 09:01:46;;;;;;;5.70;4.13;;;7.70;99.90;;;;;;4960474;28;20190;-85
2022/04/05 09:04:12;;;;;;;5.63;4.47;;;7.80;99.90;;;;;;4969786;28;20214;-85
2022/04/05 09:06:38;;;;;;;6.53;4.30;;;7.80;99.90;;;;;;4977021;28;20188;-85
2022/04/05 09:09:11;;;;;;;7.17;5.33;;;7.90;99.90;;;;;;4976756;28;20242;-85
2022/04/05 09:11:54;;;;;;;5.83;4.47;;;7.90;99.90;;;;;;4986645;28;20208;-85
2022/04/05 09:14:28;;;;;;;7.60;4.87;;;7.90;99.90;;;;;;4980060;28;20185;-85
2022/04/05 09:17:05;;;;;;;6.60;4.30;;;8.00;99.90;;;;;;4979590;28;20212;-85
2022/04/05 09:19:42;;;;;;;6.87;4.47;;;8.10;99.90;;;;;;4979649;28;20206;-85
2022/04/05 09:22:09;;;;;;;7.00;5.17;;;8.10;99.90;;;;;;4980052;28;20202;-85
2022/04/05 09:24:35;;;;;;;6.30;4.70;;;8.20;99.90;;;;;;4979874;28;20207;-85
2022/04/05 09:27:02;;;;;;;5.90;4.30;;;8.20;99.90;;;;;;4976446;28;20604;-85
2022/04/05 09:29:38;;;;;;;5.70;4.00;;;8.30;99.90;;;;;;4973348;28;20253;-85
2022/04/05 09:32:04;;;;;;;8.37;4.87;;;8.40;99.90;;;;;;4980117;28;20202;-85
2022/04/05 09:34:30;;;;;;;5.90;4.47;;;8.50;99.90;;;;;;4980088;28;20600;-85
2022/04/05 09:36:56;;;;;;;5.43;4.30;;;8.60;99.90;;;;;;4979418;28;20324;-85
2022/04/05 09:40:14;;;;;;;8.23;5.70;;;8.60;99.90;;;;;;4979111;28;20261;-85
2022/04/05 09:43:00;;;;;;;6.87;4.20;;;8.70;99.90;;;;;;4979831;28;20206;-85
2022/04/05 09:45:45;;;;;;;6.23;4.50;;;8.70;99.90;;;;;;4959868;28;20210;-85
2022/04/05 09:48:12;;;;;;;5.37;4.30;;;8.80;99.90;;;;;;4976447;28;20207;-85
2022/04/05 09:51:09;;;;;;;7.00;4.27;;;8.80;99.90;;;;;;4960531;28;20180;-85
2022/04/05 09:53:41;;;;;;;4.33;3.70;;;8.70;99.90;;;;;;4976441;28;20226;-85
2022/04/05 09:56:14;;;;;;;6.03;3.73;;;8.80;99.90;;;;;;4960173;28;20191;-85
2022/04/05 09:58:46;;;;;;;5.63;3.97;;;8.80;99.90;;;;;;4982721;28;20221;-85
2022/04/05 10:01:12;;;;;;;6.47;4.07;;;8.80;99.90;;;;;;4977078;28;20180;-85
2022/04/05 10:03:42;;;;;;;7.20;3.70;;;8.80;99.90;;;;;;4996258;28;20195;-84
2022/04/05 10:06:09;;;;;;;6.73;4.03;;;8.80;99.90;;;;;;4980221;28;20211;-86
2022/04/05 10:08:36;;;;;;;5.60;3.83;;;8.80;99.90;;;;;;4978918;28;20190;-85
2022/04/05 10:11:06;;;;;;;5.33;3.90;;;8.80;99.90;;;;;;4979054;28;20185;-85
2022/04/05 10:13:33;;;;;;;5.47;3.43;;;8.80;99.90;;;;;;4979157;28;20210;-86
2022/04/05 10:16:00;;;;;;;4.47;3.70;;;8.80;99.90;;;;;;4975936;28;20669;-86
2022/04/05 10:18:35;;;;;;;5.27;3.50;;;8.80;99.90;;;;;;4960438;28;20246;-85
2022/04/05 10:21:05;;;;;;;5.40;3.40;;;8.80;99.90;;;;;;4964781;28;20192;-86
2022/04/05 10:23:32;;;;;;;6.37;3.77;;;8.80;99.90;;;;;;4972140;28;20219;-86
2022/04/05 10:25:59;;;;;;;6.63;3.70;;;8.80;99.90;;;;;;4979440;28;20204;-86
2022/04/05 10:28:34;;;;;;;5.17;4.07;;;8.80;99.90;;;;;;4968129;28;20187;-85
2022/04/05 10:31:10;;;;;;;5.67;4.20;;;8.80;99.90;;;;;;4982647;28;20171;-85
2022/04/05 10:34:02;;;;;;;4.73;4.00;;;8.80;99.90;;;;;;4979809;28;20207;-85
2022/04/05 10:36:38;;;;;;;4.93;3.53;;;8.70;99.90;;;;;;4973684;28;20184;-86
2022/04/05 10:39:18;;;;;;;3.67;3.37;;;8.70;99.90;;;;;;4979028;28;20187;-85
2022/04/05 10:42:07;;;;;;;6.63;4.03;;;8.70;99.90;;;;;;4979361;28;20187;-85
2022/04/05 10:44:36;;;;;;;3.80;3.30;;;8.70;99.90;;;;;;4962566;28;20212;-86
2022/04/05 10:47:06;;;;;;;6.33;3.60;;;8.70;99.90;;;;;;4963145;28;20180;-85
2022/04/05 10:49:42;;;;;;;6.27;3.60;;;8.60;99.90;;;;;;4963092;28;20251;-85
2022/04/05 10:52:32;;;;;;;8.30;4.40;;;8.60;99.90;;;;;;4964125;28;20227;-82
2022/04/05 10:55:08;;;;;;;6.13;3.90;;;8.60;99.90;;;;;;4963297;28;20703;-85
2022/04/05 10:57:40;;;;;;;6.33;4.53;;;8.70;99.90;;;;;;4963873;28;20222;-86
2022/04/05 11:00:12;;;;;;;6.00;4.07;;;8.60;99.90;;;;;;4981374;28;20187;-86
2022/04/05 11:02:46;;;;;;;7.03;3.60;;;8.60;99.90;;;;;;4982294;28;20280;-86
2022/04/05 11:05:16;;;;;;;4.80;3.40;;;8.60;99.90;;;;;;4998845;28;20206;-86
2022/04/05 11:07:53;;;;;;;7.03;4.07;;;8.60;99.90;;;;;;4982145;28;20267;-86
2022/04/05 11:10:36;;;;;;;4.77;3.30;;;8.60;99.90;;;;;;4981769;28;20182;-86
2022/04/05 11:13:08;;;;;;;5.60;4.17;;;8.60;99.90;;;;;;4963129;28;20204;-86
2022/04/05 11:15:47;;;;;;;6.43;3.67;;;8.70;99.90;;;;;;4978920;28;20191;-86
2022/04/05 11:18:18;;;;;;;5.00;3.90;;;8.70;99.90;;;;;;4986426;28;20199;-86
2022/04/05 11:20:52;;;;;;;5.70;3.90;;;8.70;99.90;;;;;;4982905;28;20227;-86
2022/04/05 11:23:20;;;;;;;4.77;3.60;;;8.70;99.90;;;;;;4982020;28;20206;-86
2022/04/05 11:25:47;;;;;;;4.67;4.00;;;8.80;99.90;;;;;;4982027;28;20207;-86
2022/04/05 11:28:17;;;;;;;4.90;3.87;;;8.80;99.90;;;;;;4982116;28;20214;-86
2022/04/05 11:30:55;;;;;;;4.73;4.10;;;8.90;99.90;;;;;;4978975;28;20188;-86
2022/04/05 11:33:31;;;;;;;5.13;3.80;;;8.80;99.90;;;;;;4962817;28;20571;-86
2022/04/05 11:35:58;;;;;;;7.07;3.93;;;8.90;99.90;;;;;;4962120;28;20184;-86
2022/04/05 11:38:32;;;;;;;4.20;3.47;;;8.90;99.90;;;;;;4968834;28;20172;-86
2022/04/05 11:41:36;;;;;;;4.73;4.00;;;9.00;99.90;;;;;;4978434;28;20179;-86
2022/04/05 11:44:07;;;;;;;6.00;3.77;;;9.00;99.90;;;;;;4983778;28;20195;-86
2022/04/05 11:46:37;;;;;;;5.13;4.10;;;9.00;99.90;;;;;;4981811;28;20179;-84
2022/04/05 11:49:07;;;;;;;6.73;4.20;;;9.20;99.90;;;;;;4988449;28;20183;-87
2022/04/05 11:51:36;;;;;;;5.90;3.90;;;9.20;99.90;;;;;;4972586;28;20263;-86
2022/04/05 11:54:29;;;;;;;6.00;3.83;;;9.40;99.90;;;;;;5000853;28;20210;-86
2022/04/05 11:57:04;;;;;;;4.43;3.93;;;9.40;99.90;;;;;;4975159;28;20187;-86
2022/04/05 11:59:31;;;;;;;7.77;4.13;;;9.50;99.90;;;;;;4971519;28;20184;-86
2022/04/05 12:01:58;;;;;;;6.23;4.00;;;9.60;99.90;;;;;;4963669;28;20255;-86
2022/04/05 12:04:25;;;;;;;4.93;4.00;;;9.60;99.90;;;;;;4961888;28;20203;-86
2022/04/05 12:07:01;;;;;;;7.23;4.67;;;9.60;99.90;;;;;;4961957;28;20183;-86
2022/04/05 12:09:27;;;;;;;7.67;4.73;;;9.60;99.90;;;;;;4977449;28;20218;-86
2022/04/05 12:11:54;;;;;;;6.20;4.40;;;9.60;99.90;;;;;;4972543;28;20185;-86
2022/04/05 12:14:22;;;;;;;6.63;4.33;;;9.70;99.90;;;;;;4981192;28;20203;-86
2022/04/05 12:16:56;;;;;;;7.47;5.50;;;9.70;99.90;;;;;;4980776;28;20194;-86
2022/04/05 12:19:28;;;;;;;4.57;4.07;;;9.70;99.90;;;;;;4981050;28;20186;-87
2022/04/05 12:22:08;;;;;;;5.83;4.00;;;9.70;99.90;;;;;;4979847;28;20183;-87
2022/04/05 12:24:40;;;;;;;5.97;4.37;;;9.70;99.90;;;;;;4992614;28;20211;-86
2022/04/05 12:27:07;;;;;;;5.50;4.43;;;9.70;99.90;;;;;;4983998;28;20180;-86
2022/04/05 12:29:42;;;;;;;5.60;3.43;;;9.70;99.90;;;;;;4985351;28;20195;-87
2022/04/05 12:32:13;;;;;;;7.13;4.37;;;9.80;99.90;;;;;;4977592;28;20289;-87
2022/04/05 12:34:41;;;;;;;5.03;3.70;;;9.70;99.90;;;;;;4977838;28;20199;-86
2022/04/05 12:37:14;;;;;;;4.37;3.57;;;9.80;99.90;;;;;;4964272;28;20187;-86
2022/04/05 12:39:46;;;;;;;5.37;4.23;;;9.80;99.90;;;;;;4977917;28;20172;-87
2022/04/05 12:42:12;;;;;;;5.47;3.77;;;9.80;99.90;;;;;;4975968;28;20200;-86
2022/04/05 12:44:43;;;;;;;3.93;3.63;;;9.80;99.90;;;;;;4977219;28;20310;-86
2022/04/05 12:47:43;;;;;;;6.63;4.07;;;9.80;99.90;;;;;;4980147;28;20163;-87
2022/04/05 12:50:09;;;;;;;6.30;3.93;;;9.90;99.90;;;;;;4976907;28;20176;-86
2022/04/05 12:52:35;;;;;;;5.07;4.07;;;9.90;99.90;;;;;;4977254;28;20211;-87
2022/04/05 12:55:12;;;;;;;5.57;4.10;;;9.90;99.90;;;;;;4960741;28;20188;-86
2022/04/05 12:57:45;;;;;;;6.47;3.50;;;9.80;99.90;;;;;;4977313;28;20171;-87
2022/04/05 13:00:18;;;;;;;5.87;4.03;;;9.90;99.90;;;;;;4979348;28;20184;-87
2022/04/05 13:03:09;;;;;;;4.57;4.00;;;9.90;99.90;;;;;;4991372;28;20253;-86
2022/04/05 13:08:35;;;;;;;7.07;4.50;;;9.80;99.90;;;;;;4979811;28;20215;-86
2022/04/05 13:11:29;;;;;;;4.40;3.77;;;9.80;99.90;;;;;;4998038;28;20172;-86
2022/04/05 13:14:07;;;;;;;6.07;3.90;;;9.90;99.90;;;;;;4993577;28;20207;-87